Temp: 4.3°C   Baro: 1017.1mb
  Wind: 0.0mph   Dir: NNW (342°)
  Rain: 0.0mm (0.0mm/hr)
  Solar: 0W/m2  Hum: 83%

Historic data

Bath Spa Weather Station Historical Data
Daily Summary for February 28, 2021 Units:  Metric    English   Both
Daily Weekly Monthly Yearly Custom
  High: Low: Average:
Temperature: 5.3 °C -1.1 °C 2.5 °C
Dew Point: 3 °C -3.5 °C -0.5 °C
Humidity: 88.4% 66.8% 78%
Wind Speed: 17.4km/h 0km/h 4.8km/h
Wind Gust: 33.8km/h - -
Wind- - West
Pressure: 1012.8 hPa 1007.3 hPa -
Precipitation: 0 mm    
Historical Graphs
 
 
Tabular Data for February 28, 2021
Time Temperature Dew Point Pressure Wind Wind Speed Wind Gust Humidity Rainfall Rate (Hourly) solar
00:04 1.2 °C -2.7 °C 1009.7 hPa NW 4.8 km/h 17.7 km/h 72.6% 0 mm 0 W/m2
00:09 1.1 °C -2.7 °C 1009.7 hPa NW 1.6 km/h 12.9 km/h 73% 0 mm 0 W/m2
00:14 0.9 °C -2.8 °C 1009.7 hPa NW 5 km/h 9.7 km/h 73% 0 mm 0 W/m2
00:19 0.9 °C -2.8 °C 1009.4 hPa NW 4.5 km/h 11.3 km/h 73.2% 0 mm 0 W/m2
00:24 0.9 °C -2.7 °C 1009.4 hPa NW 7.1 km/h 14.5 km/h 74% 0 mm 0 W/m2
00:29 1 °C -2.6 °C 1009.4 hPa NW 5.8 km/h 14.5 km/h 74% 0 mm 0 W/m2
00:34 1 °C -2.6 °C 1009.7 hPa NW 4.7 km/h 16.1 km/h 74% 0 mm 0 W/m2
00:39 1 °C -2.6 °C 1009.7 hPa NW 1.9 km/h 16.1 km/h 74% 0 mm 0 W/m2
00:44 0.9 °C -2.7 °C 1009.7 hPa NW 2.9 km/h 16.1 km/h 74% 0 mm 0 W/m2
00:49 0.8 °C -2.8 °C 1009.7 hPa NW 2.9 km/h 9.7 km/h 74% 0 mm 0 W/m2
00:54 0.8 °C -2.8 °C 1009.4 hPa NW 1.9 km/h 9.7 km/h 74% 0 mm 0 W/m2
00:59 0.7 °C -2.8 °C 1009.4 hPa NW 2.6 km/h 9.7 km/h 74.6% 0 mm 0 W/m2
01:04 0.7 °C -2.7 °C 1009.4 hPa NW 4 km/h 8 km/h 75% 0 mm 0 W/m2
01:09 0.6 °C -2.8 °C 1009.4 hPa NW 3.2 km/h 9.7 km/h 75% 0 mm 0 W/m2
01:14 0.5 °C -2.9 °C 1009.4 hPa NW 2.3 km/h 8 km/h 75% 0 mm 0 W/m2
01:19 0.4 °C -2.9 °C 1009.4 hPa NW 5.5 km/h 9.7 km/h 75.6% 0 mm 0 W/m2
01:24 0.4 °C -2.9 °C 1009.4 hPa NW 3.9 km/h 11.3 km/h 76% 0 mm 0 W/m2
01:29 0.5 °C -2.8 °C 1009.4 hPa NW 7.4 km/h 16.1 km/h 76% 0 mm 0 W/m2
01:34 0.6 °C -2.7 °C 1009.7 hPa NW 5.5 km/h 19.3 km/h 76% 0 mm 0 W/m2
01:39 0.7 °C -2.7 °C 1009.4 hPa NW 6.3 km/h 14.5 km/h 76% 0 mm 0 W/m2
01:44 0.6 °C -2.7 °C 1009.4 hPa NW 1.3 km/h 11.3 km/h 76% 0 mm 0 W/m2
01:49 0.6 °C -2.7 °C 1009.4 hPa NW 1.6 km/h 8 km/h 76% 0 mm 0 W/m2
01:54 0.7 °C -2.7 °C 1009.4 hPa NW 2.6 km/h 11.3 km/h 76% 0 mm 0 W/m2
01:59 0.7 °C -2.6 °C 1009.7 hPa NW 0.6 km/h 6.4 km/h 76% 0 mm 0 W/m2
02:04 0.7 °C -2.6 °C 1009.7 hPa NW 2.6 km/h 11.3 km/h 76% 0 mm 0 W/m2
02:09 0.7 °C -2.6 °C 1009.7 hPa NW 2.3 km/h 12.9 km/h 76% 0 mm 0 W/m2
02:14 0.7 °C -2.6 °C 1009.7 hPa NW 0.6 km/h 8 km/h 76% 0 mm 0 W/m2
02:19 0.8 °C -2.5 °C 1009.7 hPa NW 1.1 km/h 11.3 km/h 76% 0 mm 0 W/m2
02:24 0.8 °C -2.5 °C 1009.7 hPa NW 1.9 km/h 8 km/h 76% 0 mm 0 W/m2
02:29 0.8 °C -2.5 °C 1009.7 hPa NNW 6.8 km/h 14.5 km/h 76% 0 mm 0 W/m2
02:34 0.8 °C -2.5 °C 1009.7 hPa NW 9 km/h 16.1 km/h 76% 0 mm 0 W/m2
02:39 0.9 °C -2.4 °C 1009.7 hPa NW 9 km/h 16.1 km/h 76% 0 mm 0 W/m2
02:44 0.9 °C -2.3 °C 1009.7 hPa NW 11.6 km/h 16.1 km/h 76% 0 mm 0 W/m2
02:49 1 °C -2.3 °C 1009.7 hPa NNW 13.5 km/h 19.3 km/h 76% 0 mm 0 W/m2
02:54 1 °C -2.3 °C 1009.7 hPa NW 9.7 km/h 17.7 km/h 75.8% 0 mm 0 W/m2
02:59 1 °C -2.3 °C 1009.7 hPa NNW 11.4 km/h 20.9 km/h 76% 0 mm 0 W/m2
03:04 1 °C -2.3 °C 1009.7 hPa NW 8.4 km/h 20.9 km/h 76% 0 mm 0 W/m2
03:09 1 °C -2.3 °C 1009.7 hPa NW 5.5 km/h 20.9 km/h 76% 0 mm 0 W/m2
03:14 1 °C -2.3 °C 1009.7 hPa NW 9 km/h 20.9 km/h 76% 0 mm 0 W/m2
03:19 1 °C -2.3 °C 1009.7 hPa NW 5.3 km/h 12.9 km/h 76% 0 mm 0 W/m2
03:24 1 °C -2.3 °C 1009.7 hPa NW 7.6 km/h 12.9 km/h 76% 0 mm 0 W/m2
03:29 1 °C -2.3 °C 1009.7 hPa NW 5.3 km/h 9.7 km/h 76% 0 mm 0 W/m2
03:34 1 °C -2.3 °C 1009.7 hPa NW 7.2 km/h 17.7 km/h 76% 0 mm 0 W/m2
03:39 1.1 °C -2.2 °C 1009.7 hPa NW 6.4 km/h 17.7 km/h 76% 0 mm 0 W/m2
03:44 1 °C -2.3 °C 1009.7 hPa NW 5.6 km/h 14.5 km/h 76% 0 mm 0 W/m2
03:49 1 °C -2.3 °C 1009.4 hPa NW 6.9 km/h 16.1 km/h 76% 0 mm 0 W/m2
03:54 1 °C -2.3 °C 1009.4 hPa NW 9.3 km/h 17.7 km/h 76% 0 mm 0 W/m2
03:59 1 °C -2.3 °C 1009.4 hPa NW 9.7 km/h 19.3 km/h 76% 0 mm 0 W/m2
04:04 1 °C -2.3 °C 1009.4 hPa NW 9.3 km/h 16.1 km/h 76% 0 mm 0 W/m2
04:09 0.9 °C -2.4 °C 1009.4 hPa NW 7.1 km/h 16.1 km/h 76% 0 mm 0 W/m2
04:14 0.8 °C -2.5 °C 1009.4 hPa NNW 5.8 km/h 19.3 km/h 76% 0 mm 0 W/m2
04:19 0.8 °C -2.5 °C 1009.4 hPa North 4 km/h 11.3 km/h 76% 0 mm 0 W/m2
04:24 0.7 °C -2.3 °C 1009.4 hPa NNW 7.1 km/h 14.5 km/h 77% 0 mm 0 W/m2
04:29 0.7 °C -2.4 °C 1009.4 hPa NNW 7.2 km/h 17.7 km/h 77% 0 mm 0 W/m2
04:34 0.7 °C -2.4 °C 1009.4 hPa NNW 6.3 km/h 11.3 km/h 77% 0 mm 0 W/m2
04:39 0.7 °C -2.4 °C 1009.4 hPa NNW 4 km/h 9.7 km/h 77% 0 mm 0 W/m2
04:44 0.6 °C -2.5 °C 1009.4 hPa NNW 4.8 km/h 8 km/h 77% 0 mm 0 W/m2
04:49 0.6 °C -2.5 °C 1009.4 hPa NNW 3.4 km/h 9.7 km/h 77% 0 mm 0 W/m2
04:54 0.6 °C -2.5 °C 1009.4 hPa NNW 4.2 km/h 9.7 km/h 77% 0 mm 0 W/m2
04:59 0.6 °C -2.5 °C 1009.4 hPa NNW 6.1 km/h 11.3 km/h 77% 0 mm 0 W/m2
05:04 0.7 °C -2.4 °C 1009.4 hPa NNW 4.7 km/h 12.9 km/h 77% 0 mm 0 W/m2
05:09 0.7 °C -2.4 °C 1009.7 hPa NNW 2.3 km/h 9.7 km/h 77% 0 mm 0 W/m2
05:14 0.7 °C -2.4 °C 1009.7 hPa NNW 2.1 km/h 9.7 km/h 77% 0 mm 0 W/m2
05:19 0.7 °C -2.4 °C 1009.7 hPa Calm     77% 0 mm 0 W/m2
05:24 0.6 °C -2.5 °C 1009.7 hPa NNW 1 km/h 4.8 km/h 77% 0 mm 0 W/m2
05:29 0.4 °C -2.7 °C 1009.7 hPa NNW 1.1 km/h 4.8 km/h 77% 0 mm 0 W/m2
05:34 0.3 °C -2.7 °C 1009.7 hPa NNW 2.3 km/h 4.8 km/h 77% 0 mm 0 W/m2
05:39 0.3 °C -2.7 °C 1009.7 hPa NNW 1.9 km/h 6.4 km/h 78% 0 mm 0 W/m2
05:44 0.2 °C -2.7 °C 1009.7 hPa Calm     78% 0 mm 0 W/m2
05:49 0.1 °C -2.8 °C 1009.7 hPa Calm     78% 0 mm 0 W/m2
05:54 -0.1 °C -2.9 °C 1009.7 hPa Calm     78% 0 mm 0 W/m2
05:59 -0.2 °C -3.1 °C 1009.7 hPa Calm     78% 0 mm 0 W/m2
06:04 -0.3 °C -3.1 °C 1009.7 hPa Calm     78.6% 0 mm 0 W/m2
06:09 -0.4 °C -3.1 °C 1009.7 hPa Calm     79% 0 mm 0 W/m2
06:14 -0.6 °C -3.3 °C 1009.7 hPa Calm     79% 0 mm 0 W/m2
06:19 -0.8 °C -3.4 °C 1010 hPa Calm     79% 0 mm 0 W/m2
06:24 -0.8 °C -3.5 °C 1010 hPa Calm     79.2% 0 mm 0 W/m2
06:29 -0.9 °C -3.4 °C 1009.7 hPa Calm     80% 0 mm 0 W/m2
06:34 -1 °C -3.5 °C 1009.7 hPa Calm     80% 0 mm 0 W/m2
06:39 -1 °C -3.5 °C 1009.7 hPa Calm     80.2% 0 mm 0 W/m2
06:44 -1.1 °C -3.5 °C 1009.7 hPa Calm     81% 0 mm 0 W/m2
06:49 -1.1 °C -3.5 °C 1009.7 hPa Calm     81% 0 mm 0 W/m2
06:54 -1.1 °C -3.5 °C 1009.7 hPa NNW 0.3 km/h 3.2 km/h 81% 0 mm 0 W/m2
06:59 -1.1 °C -3.3 °C 1009.7 hPa Calm   3.2 km/h 81.5% 0 mm 0 W/m2
07:04 -0.8 °C -3 °C 1009.7 hPa NNW 1.3 km/h 6.4 km/h 82% 0 mm 0 W/m2
07:09 -0.4 °C -2.7 °C 1009.7 hPa NNW 1.6 km/h 8 km/h 82% 0 mm 0 W/m2
07:14 -0.2 °C -2.4 °C 1009.7 hPa NNW 3.4 km/h 11.3 km/h 81.8% 0 mm 0 W/m2
07:19 0.2 °C -2.2 °C 1009.7 hPa NNW 2.7 km/h 8 km/h 81% 0 mm 0 W/m2
07:24 0.3 °C -2.2 °C 1010 hPa NNW 4 km/h 9.7 km/h 80.4% 0 mm 0 W/m2
07:29 0.3 °C -2.3 °C 1010 hPa NNW 1.9 km/h 6.4 km/h 80% 0 mm 0 W/m2
07:34 0.3 °C -2.3 °C 1010 hPa NNW 3.9 km/h 8 km/h 80% 0 mm 0 W/m2
07:39 0.4 °C -2.2 °C 1010 hPa NNW 3.9 km/h 9.7 km/h 79.6% 0 mm 0 W/m2
07:44 0.4 °C -2.3 °C 1010 hPa NNW 5.1 km/h 11.3 km/h 79% 0 mm 5 W/m2
07:49 0.5 °C -2.2 °C 1010 hPa NNW 2.9 km/h 8 km/h 79% 0 mm 5 W/m2
07:54 0.5 °C -2.2 °C 1010 hPa NNW 3.5 km/h 8 km/h 79% 0 mm 9 W/m2
07:59 0.6 °C -2.1 °C 1010 hPa NNW 2.4 km/h 6.4 km/h 79% 0 mm 14 W/m2
08:04 0.6 °C -2.1 °C 1010 hPa NNW 5.3 km/h 6.4 km/h 79% 0 mm 16 W/m2
08:09 0.7 °C -2 °C 1010 hPa NNW 4.2 km/h 8 km/h 79% 0 mm 21 W/m2
08:14 0.7 °C -1.9 °C 1010 hPa NNW 5.1 km/h 9.7 km/h 79% 0 mm 21 W/m2
08:19 0.9 °C -2 °C 1010 hPa NNW 5.8 km/h 12.9 km/h 78.2% 0 mm 25 W/m2
08:24 1 °C -1.9 °C 1010 hPa NNW 3.5 km/h 11.3 km/h 78% 0 mm 28 W/m2
08:29 1.1 °C -1.8 °C 1010 hPa NNW 5.1 km/h 9.7 km/h 78% 0 mm 33 W/m2
08:34 1.1 °C -1.8 °C 1010 hPa NNW 5.1 km/h 8 km/h 78% 0 mm 33 W/m2
08:39 1.1 °C -1.8 °C 1010 hPa NNW 5.1 km/h 9.7 km/h 78% 0 mm 37 W/m2
08:44 1.2 °C -1.7 °C 1010 hPa NNW 2.3 km/h 9.7 km/h 78% 0 mm 37 W/m2
08:49 1.3 °C -1.6 °C 1010 hPa NNW 3.2 km/h 4.8 km/h 78% 0 mm 40 W/m2
08:54 1.5 °C -1.4 °C 1010 hPa NNW 1.8 km/h 6.4 km/h 78% 0 mm 44 W/m2
08:59 1.7 °C -1.2 °C 1010 hPa NNW 0.6 km/h 4.8 km/h 78% 0 mm 44 W/m2
09:04 1.8 °C -1.2 °C 1010 hPa Calm   1.6 km/h 77.6% 0 mm 40 W/m2
09:09 2.1 °C -0.8 °C 1010 hPa NNW 3.2 km/h 9.7 km/h 78.4% 0 mm 32 W/m2
09:14 2 °C -1.2 °C 1010 hPa NW 9.2 km/h 14.5 km/h 76.8% 0 mm 30 W/m2
09:19 2.1 °C -1.2 °C 1010 hPa NW 5.6 km/h 14.5 km/h 76% 0 mm 30 W/m2
09:24 2.2 °C -1.1 °C 1010 hPa NW 3.4 km/h 11.3 km/h 76% 0 mm 32 W/m2
09:29 2.3 °C -1 °C 1010 hPa NW 3.9 km/h 9.7 km/h 76% 0 mm 40 W/m2
09:34 2.5 °C -0.9 °C 1010 hPa NW 1.6 km/h 8 km/h 75.8% 0 mm 47 W/m2
09:39 2.7 °C -0.8 °C 1010 hPa NW 5 km/h 12.9 km/h 74.8% 0 mm 65 W/m2
09:44 2.7 °C -1 °C 1010 hPa NW 5.8 km/h 11.3 km/h 74% 0 mm 86 W/m2
09:49 2.8 °C -0.8 °C 1010 hPa NW 2.7 km/h 12.9 km/h 74% 0 mm 100 W/m2
09:54 3.2 °C -0.6 °C 1010 hPa NW 4.5 km/h 8 km/h 73.8% 0 mm 105 W/m2
09:59 3.3 °C -0.6 °C 1010 hPa NW 3.4 km/h 8 km/h 73% 0 mm 104 W/m2
10:04 3.3 °C -0.8 °C 1010 hPa NW 9.8 km/h 14.5 km/h 72% 0 mm 111 W/m2
10:09 3.3 °C -0.8 °C 1010 hPa NW 7.4 km/h 16.1 km/h 72% 0 mm 116 W/m2
10:14 3.2 °C -0.8 °C 1010 hPa WNW 8.7 km/h 17.7 km/h 72.2% 0 mm 97 W/m2
10:19 3.2 °C -0.9 °C 1010 hPa NW 9.2 km/h 17.7 km/h 72% 0 mm 137 W/m2
10:24 3.2 °C -0.9 °C 1010 hPa WNW 7.9 km/h 17.7 km/h 72% 0 mm 158 W/m2
10:29 3.3 °C -0.7 °C 1010 hPa WNW 6.6 km/h 12.9 km/h 72.6% 0 mm 160 W/m2
10:34 3.5 °C -0.6 °C 1010 hPa WNW 6.6 km/h 12.9 km/h 72% 0 mm 162 W/m2
10:39 3.6 °C -0.5 °C 1010 hPa WNW 7.9 km/h 12.9 km/h 72% 0 mm 206 W/m2
10:44 3.7 °C -0.4 °C 1010 hPa WNW 5.3 km/h 11.3 km/h 72% 0 mm 246 W/m2
10:49 3.9 °C -0.3 °C 1010 hPa WNW 6.8 km/h 11.3 km/h 71.4% 0 mm 251 W/m2
10:54 4 °C -0.2 °C 1010 hPa WNW 2.7 km/h 12.9 km/h 71.2% 0 mm 257 W/m2
10:59 4.2 °C -0.1 °C 1009.7 hPa WNW 4.7 km/h 9.7 km/h 71% 0 mm 230 W/m2
11:04 4.3 °C 0 °C 1009.7 hPa WNW 4.3 km/h 8 km/h 70.8% 0 mm 221 W/m2
11:09 4.4 °C -0.1 °C 1009.7 hPa WNW 6.1 km/h 11.3 km/h 70% 0 mm 206 W/m2
11:14 4.3 °C -0.4 °C 1009.7 hPa NW 9.7 km/h 14.5 km/h 69% 0 mm 204 W/m2
11:19 4.3 °C -0.4 °C 1009.7 hPa NW 6.8 km/h 14.5 km/h 69% 0 mm 206 W/m2
11:24 4.4 °C -0.5 °C 1009.7 hPa NW 8.4 km/h 16.1 km/h 68.2% 0 mm 211 W/m2
11:29 4.5 °C -0.4 °C 1009.4 hPa NW 5.3 km/h 16.1 km/h 68% 0 mm 213 W/m2
11:34 4.6 °C -0.4 °C 1009.4 hPa NW 8.7 km/h 16.1 km/h 67.6% 0 mm 216 W/m2
11:39 4.4 °C -0.5 °C 1009.4 hPa NW 9.7 km/h 16.1 km/h 68% 0 mm 221 W/m2
11:44 4.6 °C -0.3 °C 1009 hPa NW 6.4 km/h 14.5 km/h 67.8% 0 mm 223 W/m2
11:49 4.9 °C -0.2 °C 1009 hPa NW 6.4 km/h 11.3 km/h 67.2% 0 mm 225 W/m2
11:54 5.1 °C -0.1 °C 1009 hPa NW 6.4 km/h 12.9 km/h 66.8% 0 mm 229 W/m2
11:59 4.8 °C -0.3 °C 1009 hPa NW 7.6 km/h 14.5 km/h 67% 0 mm 229 W/m2
12:04 4.8 °C -0.3 °C 1009 hPa NW 9 km/h 14.5 km/h 66.8% 0 mm 232 W/m2
12:09 4.8 °C -0.3 °C 1009 hPa NW 5.3 km/h 12.9 km/h 67% 0 mm 239 W/m2
12:14 4.9 °C -0.1 °C 1009 hPa WNW 10.1 km/h 16.1 km/h 67.4% 0 mm 241 W/m2
12:19 4.9 °C -0.1 °C 1009 hPa NW 7.6 km/h 16.1 km/h 67.5% 0 mm 248 W/m2
12:24 5.1 °C 0.1 °C 1009 hPa NW 8.7 km/h 14.5 km/h 67.6% 0 mm 250 W/m2
12:29 4.8 °C -0.2 °C 1009 hPa WNW 8.7 km/h 16.1 km/h 67.2% 0 mm 285 W/m2
12:34 4.8 °C -0.1 °C 1009 hPa NW 9.5 km/h 14.5 km/h 68% 0 mm 179 W/m2
12:39 5.2 °C 0.3 °C 1008.7 hPa NW 5.1 km/h 14.5 km/h 68.2% 0 mm 244 W/m2
12:44 5.2 °C 0.4 °C 1008.7 hPa NW 5.8 km/h 14.5 km/h 68.2% 0 mm 264 W/m2
12:49 5.2 °C 0.2 °C 1008.7 hPa WNW 6 km/h 14.5 km/h 67.4% 0 mm 171 W/m2
12:54 5.1 °C 0.2 °C 1008.7 hPa WNW 8.5 km/h 14.5 km/h 68% 0 mm 130 W/m2
12:59 5 °C 0.1 °C 1008.7 hPa WNW 9.2 km/h 16.1 km/h 68% 0 mm 214 W/m2
13:04 5.2 °C 0.2 °C 1008.7 hPa WNW 6.8 km/h 11.3 km/h 68% 0 mm 171 W/m2
13:09 5.2 °C 0.3 °C 1008.7 hPa WNW 8 km/h 19.3 km/h 68% 0 mm 155 W/m2
13:14 5.2 °C 0.2 °C 1008.7 hPa WNW 6.4 km/h 12.9 km/h 68% 0 mm 134 W/m2
13:19 5.2 °C 0.3 °C 1008.7 hPa WNW 6 km/h 16.1 km/h 68% 0 mm 121 W/m2
13:24 5.2 °C 0.3 °C 1008.4 hPa WNW 5.1 km/h 11.3 km/h 68% 0 mm 105 W/m2
13:29 5.1 °C 0.3 °C 1008.4 hPa WNW 6 km/h 12.9 km/h 68.4% 0 mm 98 W/m2
13:34 5.1 °C 0.3 °C 1008.4 hPa WNW 4.5 km/h 14.5 km/h 68.4% 0 mm 98 W/m2
13:39 5.2 °C 0.4 °C 1008.4 hPa WNW 3.2 km/h 9.7 km/h 69% 0 mm 100 W/m2
13:44 5.3 °C 0.6 °C 1008.4 hPa WNW 5.1 km/h 12.9 km/h 69.4% 0 mm 88 W/m2
13:49 5.2 °C 0.4 °C 1008.4 hPa WNW 10.1 km/h 16.1 km/h 69% 0 mm 81 W/m2
13:54 5.1 °C 0.6 °C 1008.4 hPa WNW 6.9 km/h 12.9 km/h 70% 0 mm 83 W/m2
13:59 5.1 °C 0.6 °C 1008.4 hPa WNW 4.2 km/h 8 km/h 70% 0 mm 84 W/m2
14:04 5.1 °C 0.6 °C 1008.4 hPa WNW 3.7 km/h 11.3 km/h 70% 0 mm 83 W/m2
14:09 5.2 °C 0.7 °C 1008.4 hPa WNW 4 km/h 11.3 km/h 70% 0 mm 88 W/m2
14:14 5.1 °C 0.6 °C 1008.4 hPa WNW 4.2 km/h 9.7 km/h 70% 0 mm 77 W/m2
14:19 5.1 °C 0.6 °C 1008.4 hPa WNW 6.8 km/h 12.9 km/h 70% 0 mm 76 W/m2
14:24 5.1 °C 0.6 °C 1008.4 hPa WNW 6 km/h 11.3 km/h 70% 0 mm 63 W/m2
14:29 5.1 °C 0.6 °C 1008.4 hPa WNW 4.7 km/h 12.9 km/h 70% 0 mm 60 W/m2
14:34 5.1 °C 0.7 °C 1008.4 hPa WNW 5.1 km/h 12.9 km/h 70.2% 0 mm 58 W/m2
14:39 5.1 °C 0.8 °C 1008.4 hPa WNW 7.1 km/h 11.3 km/h 71% 0 mm 46 W/m2
14:44 5.1 °C 0.8 °C 1008.7 hPa WNW 4.3 km/h 11.3 km/h 71% 0 mm 46 W/m2
14:49 5.1 °C 0.8 °C 1008.7 hPa WNW 4.5 km/h 8 km/h 71% 0 mm 49 W/m2
14:54 5.1 °C 0.8 °C 1008.4 hPa WNW 4 km/h 9.7 km/h 71% 0 mm 40 W/m2
14:59 5.1 °C 0.8 °C 1008.4 hPa WNW 3.4 km/h 6.4 km/h 71% 0 mm 33 W/m2
15:04 5.1 °C 1 °C 1008.4 hPa WNW 3.2 km/h 6.4 km/h 72% 0 mm 30 W/m2
15:09 5.1 °C 0.9 °C 1008.4 hPa WNW 1.3 km/h 4.8 km/h 72% 0 mm 33 W/m2
15:14 5 °C 0.9 °C 1008.4 hPa WNW 1.6 km/h 3.2 km/h 72.4% 0 mm 37 W/m2
15:19 5 °C 1 °C 1008.4 hPa Calm     73% 0 mm 25 W/m2
15:24 5 °C 1 °C 1008.4 hPa WNW 1 km/h 3.2 km/h 73% 0 mm 19 W/m2
15:29 4.9 °C 0.9 °C 1008 hPa Calm   3.2 km/h 73% 0 mm 21 W/m2
15:34 4.9 °C 1.1 °C 1008.4 hPa Calm     73.8% 0 mm 16 W/m2
15:39 4.9 °C 1.1 °C 1008.4 hPa Calm     74% 0 mm 7 W/m2
15:44 4.9 °C 1.2 °C 1008 hPa WNW 0.3 km/h 4.8 km/h 74.4% 0 mm 5 W/m2
15:49 4.9 °C 1.3 °C 1008 hPa Calm   4.8 km/h 75% 0 mm 0 W/m2
15:54 4.9 °C 1.3 °C 1008 hPa WNW 1 km/h 4.8 km/h 75.4% 0 mm 0 W/m2
15:59 4.8 °C 1.5 °C 1008 hPa WNW 2.7 km/h 6.4 km/h 76.2% 0 mm 0 W/m2
16:03 4.8 °C 1.7 °C 1008 hPa WNW 2.7 km/h 6.4 km/h 77% 0 mm 0 W/m2
16:09 4.8 °C 1.8 °C 1008 hPa WNW 3.2 km/h 8 km/h 78% 0 mm 0 W/m2
16:14 4.8 °C 1.8 °C 1008 hPa Calm   4.8 km/h 78.4% 0 mm 0 W/m2
16:19 4.7 °C 1.9 °C 1008 hPa Calm     79% 0 mm 0 W/m2
16:24 4.7 °C 1.9 °C 1008 hPa Calm     79% 0 mm 0 W/m2
16:29 4.6 °C 1.9 °C 1008 hPa Calm     79.8% 0 mm 0 W/m2
16:34 4.5 °C 1.8 °C 1008 hPa Calm     80.2% 0 mm 0 W/m2
16:39 4.4 °C 1.9 °C 1007.7 hPa Calm     81% 0 mm 0 W/m2
16:44 4.3 °C 1.9 °C 1008 hPa Calm     82% 0 mm 0 W/m2
16:49 4.2 °C 1.9 °C 1007.7 hPa WNW 0.6 km/h 4.8 km/h 82.6% 0 mm 0 W/m2
16:54 4.1 °C 2 °C 1007.7 hPa Calm     83% 0 mm 0 W/m2
16:59 4 °C 1.9 °C 1007.3 hPa Calm     83.3% 0 mm 0 W/m2
17:04 3.8 °C 1.8 °C 1007.7 hPa Calm     84% 0 mm 0 W/m2
17:09 3.7 °C 1.7 °C 1007.7 hPa WNW 2.3 km/h 4.8 km/h 84% 0 mm 0 W/m2
17:14 3.7 °C 1.9 °C 1007.7 hPa WNW 3.4 km/h 6.4 km/h 85% 0 mm 0 W/m2
17:19 3.7 °C 1.9 °C 1007.7 hPa WNW 4.2 km/h 8 km/h 85% 0 mm 0 W/m2
17:24 3.7 °C 1.9 °C 1007.7 hPa WNW 4.8 km/h 8 km/h 85% 0 mm 0 W/m2
17:29 3.7 °C 1.9 °C 1007.7 hPa WNW 3.5 km/h 8 km/h 85% 0 mm 0 W/m2
17:34 3.7 °C 2 °C 1007.7 hPa WNW 4.5 km/h 8 km/h 85.6% 0 mm 0 W/m2
17:39 3.7 °C 2.1 °C 1007.7 hPa WNW 6.9 km/h 11.3 km/h 86% 0 mm 0 W/m2
17:44 3.8 °C 2.2 °C 1007.7 hPa WNW 7.7 km/h 14.5 km/h 86% 0 mm 0 W/m2
17:49 3.9 °C 2.3 °C 1007.7 hPa WNW 6 km/h 9.7 km/h 86% 0 mm 0 W/m2
17:54 3.9 °C 2.3 °C 1007.7 hPa WNW 5.3 km/h 11.3 km/h 86% 0 mm 0 W/m2
17:59 3.9 °C 2.3 °C 1007.7 hPa WNW 6.3 km/h 9.7 km/h 86% 0 mm 0 W/m2
18:04 3.9 °C 2.3 °C 1007.7 hPa WNW 3.4 km/h 9.7 km/h 86% 0 mm 0 W/m2
18:09 3.9 °C 2.3 °C 1007.7 hPa WNW 6 km/h 9.7 km/h 86% 0 mm 0 W/m2
18:14 4 °C 2.4 °C 1007.7 hPa WNW 6.6 km/h 11.3 km/h 86% 0 mm 0 W/m2
18:19 4.2 °C 2.6 °C 1007.7 hPa WNW 5.6 km/h 9.7 km/h 86% 0 mm 0 W/m2
18:24 4.2 °C 2.7 °C 1007.7 hPa WNW 5.8 km/h 9.7 km/h 86.8% 0 mm 0 W/m2
18:29 4.3 °C 2.8 °C 1007.7 hPa WNW 6.3 km/h 11.3 km/h 87% 0 mm 0 W/m2
18:34 4.4 °C 2.8 °C 1007.7 hPa WNW 6.6 km/h 14.5 km/h 86.2% 0 mm 0 W/m2
18:39 4.5 °C 2.9 °C 1008 hPa WNW 10.3 km/h 19.3 km/h 86% 0 mm 0 W/m2
18:44 4.6 °C 3 °C 1007.7 hPa WNW 10.6 km/h 19.3 km/h 86% 0 mm 0 W/m2
18:49 4.6 °C 3 °C 1007.7 hPa WNW 10.6 km/h 19.3 km/h 86% 0 mm 0 W/m2
18:54 4.6 °C 3 °C 1008 hPa NW 7.6 km/h 17.7 km/h 86% 0 mm 0 W/m2
18:59 4.6 °C 2.8 °C 1008 hPa NW 6.4 km/h 20.9 km/h 85.2% 0 mm 0 W/m2
19:04 4.6 °C 3 °C 1008 hPa NW 8.5 km/h 16.1 km/h 86% 0 mm 0 W/m2
19:09 4.6 °C 3 °C 1008.4 hPa NW 9 km/h 17.7 km/h 86% 0 mm 0 W/m2
19:14 4.6 °C 2.8 °C 1008.4 hPa WNW 10.6 km/h 17.7 km/h 85.2% 0 mm 0 W/m2
19:19 4.7 °C 2.8 °C 1008.4 hPa NW 6.9 km/h 17.7 km/h 85% 0 mm 0 W/m2
19:24 4.7 °C 2.9 °C 1008.4 hPa NW 5.3 km/h 17.7 km/h 85% 0 mm 0 W/m2
19:29 4.8 °C 3 °C 1008.7 hPa NW 6.6 km/h 14.5 km/h 85% 0 mm 0 W/m2
19:34 4.8 °C 2.9 °C 1009 hPa North 10 km/h 25.7 km/h 84.8% 0 mm 0 W/m2
19:39 4.8 °C 2.8 °C 1009 hPa North 13 km/h 25.7 km/h 84% 0 mm 0 W/m2
19:44 4.6 °C 2.5 °C 1009 hPa NNE 15.4 km/h 33.8 km/h 83.6% 0 mm 0 W/m2
19:49 4.3 °C 2.2 °C 1009.4 hPa North 17.4 km/h 29 km/h 83% 0 mm 0 W/m2
19:54 4.2 °C 2.1 °C 1009.4 hPa North 12.6 km/h 27.4 km/h 83% 0 mm 0 W/m2
19:59 4.1 °C 1.9 °C 1009.7 hPa NNE 10.6 km/h 24.1 km/h 83% 0 mm 0 W/m2
20:09 3.6 °C 1.6 °C 1009.7 hPa NE 6.9 km/h 19.3 km/h 84% 0 mm 0 W/m2
20:14 3.4 °C 1.6 °C 1010 hPa NNE 10.1 km/h 17.7 km/h 84.6% 0 mm 0 W/m2
20:19 3.2 °C 1.4 °C 1010 hPa NNE 10.8 km/h 17.7 km/h 85% 0 mm 0 W/m2
20:24 3 °C 1.2 °C 1010 hPa NNE 8.9 km/h 17.7 km/h 85% 0 mm 0 W/m2
20:29 2.8 °C 1.2 °C 1010.4 hPa NNE 4.8 km/h 14.5 km/h 85.6% 0 mm 0 W/m2
20:34 2.7 °C 1.1 °C 1010.4 hPa NE 8.7 km/h 19.3 km/h 86% 0 mm 0 W/m2
20:39 2.4 °C 0.8 °C 1010.4 hPa ENE 8.2 km/h 17.7 km/h 86% 0 mm 0 W/m2
20:44 2.3 °C 0.7 °C 1010.4 hPa ENE 5 km/h 17.7 km/h 86.4% 0 mm 0 W/m2
20:49 2.2 °C 0.8 °C 1010.4 hPa ENE 4.8 km/h 11.3 km/h 87% 0 mm 0 W/m2
20:54 2.2 °C 0.7 °C 1010.7 hPa ENE 7.9 km/h 11.3 km/h 87% 0 mm 0 W/m2
20:59 2.1 °C 0.7 °C 1010.7 hPa ENE 1.3 km/h 11.3 km/h 87% 0 mm 0 W/m2
21:04 2.1 °C 0.7 °C 1010.7 hPa ENE 3.2 km/h 12.9 km/h 87% 0 mm 0 W/m2
21:09 2 °C 0.6 °C 1010.7 hPa ENE 0.3 km/h 3.2 km/h 87% 0 mm 0 W/m2
21:14 1.9 °C 0.5 °C 1011.1 hPa ENE 0.3 km/h 3.2 km/h 87% 0 mm 0 W/m2
21:18 1.9 °C 0.5 °C 1011.1 hPa ENE 1.9 km/h 4.8 km/h 87% 0 mm 0 W/m2
21:24 1.9 °C 0.5 °C 1011.1 hPa ENE 1.8 km/h 8 km/h 87% 0 mm 0 W/m2
21:29 1.9 °C 0.5 °C 1011.4 hPa ENE 1.6 km/h 11.3 km/h 87% 0 mm 0 W/m2
21:34 1.9 °C 0.5 °C 1011.4 hPa ENE 1.4 km/h 11.3 km/h 87% 0 mm 0 W/m2
21:39 1.9 °C 0.5 °C 1011.4 hPa Calm   6.4 km/h 87% 0 mm 0 W/m2
21:43 1.9 °C 0.6 °C 1011.7 hPa ENE 1.1 km/h 4.8 km/h 87% 0 mm 0 W/m2
21:49 2 °C 0.6 °C 1011.7 hPa Calm   4.8 km/h 87% 0 mm 0 W/m2
21:54 2 °C 0.6 °C 1011.7 hPa ENE 4.5 km/h 11.3 km/h 87% 0 mm 0 W/m2
21:59 2 °C 0.6 °C 1011.7 hPa ENE 0.3 km/h 11.3 km/h 87% 0 mm 0 W/m2
22:04 1.9 °C 0.5 °C 1011.7 hPa ENE 1 km/h 4.8 km/h 87% 0 mm 0 W/m2
22:09 1.9 °C 0.5 °C 1011.7 hPa ENE 3.4 km/h 6.4 km/h 87% 0 mm 0 W/m2
22:14 1.9 °C 0.5 °C 1011.7 hPa NE 2.1 km/h 12.9 km/h 87% 0 mm 0 W/m2
22:19 1.8 °C 0.4 °C 1011.7 hPa NE 5.6 km/h 9.7 km/h 87% 0 mm 0 W/m2
22:24 1.8 °C 0.5 °C 1012.1 hPa NE 4.5 km/h 9.7 km/h 88% 0 mm 0 W/m2
22:29 1.8 °C 0.4 °C 1012.1 hPa NE 4.5 km/h 11.3 km/h 88% 0 mm 0 W/m2
22:34 1.6 °C 0.3 °C 1012.1 hPa NNE 6.6 km/h 14.5 km/h 87.6% 0 mm 0 W/m2
22:39 1.4 °C 0 °C 1012.1 hPa NNE 7.7 km/h 16.1 km/h 87% 0 mm 0 W/m2
22:44 1.2 °C -0.2 °C 1012.1 hPa NNE 5.8 km/h 16.1 km/h 87% 0 mm 0 W/m2
22:49 1.1 °C -0.3 °C 1012.1 hPa NNE 6.6 km/h 14.5 km/h 87% 0 mm 0 W/m2
22:54 1.1 °C -0.3 °C 1012.1 hPa North 5.6 km/h 14.5 km/h 87% 0 mm 0 W/m2
22:59 0.9 °C -0.4 °C 1012.1 hPa NW 9.3 km/h 17.7 km/h 88% 0 mm 0 W/m2
23:04 0.8 °C -0.4 °C 1012.1 hPa NW 7.6 km/h 17.7 km/h 88% 0 mm 0 W/m2
23:09 0.7 °C -0.6 °C 1012.1 hPa NNW 4 km/h 8 km/h 88% 0 mm 0 W/m2
23:14 0.7 °C -0.6 °C 1012.1 hPa NNW 5.5 km/h 11.3 km/h 88% 0 mm 0 W/m2
23:19 0.7 °C -0.7 °C 1012.4 hPa NNW 7.1 km/h 16.1 km/h 88% 0 mm 0 W/m2
23:24 0.6 °C -0.7 °C 1012.4 hPa North 5.5 km/h 16.1 km/h 88% 0 mm 0 W/m2
23:29 0.6 °C -0.7 °C 1012.4 hPa North 7.1 km/h 9.7 km/h 88% 0 mm 0 W/m2
23:34 0.5 °C -0.8 °C 1012.8 hPa North 8 km/h 16.1 km/h 88% 0 mm 0 W/m2
23:39 0.4 °C -0.8 °C 1012.8 hPa North 3.9 km/h 11.3 km/h 88% 0 mm 0 W/m2
23:44 0.4 °C -0.9 °C 1012.8 hPa North 6.4 km/h 11.3 km/h 88% 0 mm 0 W/m2
23:49 0.4 °C -0.8 °C 1012.8 hPa North 6.4 km/h 16.1 km/h 88% 0 mm 0 W/m2
23:54 0.6 °C -0.8 °C 1012.8 hPa North 1 km/h 11.3 km/h 88% 0 mm 0 W/m2
23:59 0.6 °C -0.6 °C 1012.8 hPa North 3.2 km/h 14.5 km/h 88.4% 0 mm 0 W/m2
Bath Spa Weather
Compliments of Weather Underground - 2 mb